Time;durP1;ratioP1;P1;durP2;ratioP2;P2;SDS_P1;SDS_P2;PMS_P1;PMS_P2;Temp;Humidity;BMP_temperature;BMP_pressure;BME280_temperature;BME280_humidity;BME280_pressure;Samples;Min_cycle;Max_cycle;Signal;HPM_P1;HPM_P2
2023/10/24 00:00:03;;;;;;;39.97;20.77;;;;;;;;;;10477586;28;20623;-80
2023/10/24 00:05:05;;;;;;;42.60;22.43;;;;;;;;;;10483143;28;20024;-83
2023/10/24 00:10:06;;;;;;;49.63;24.80;;;;;;;;;;10483161;28;20028;-82
2023/10/24 00:15:07;;;;;;;36.27;19.57;;;;;;;;;;10482842;28;20546;-80
2023/10/24 00:20:09;;;;;;;37.63;20.37;;;;;;;;;;10481876;28;20102;-79
2023/10/24 00:25:10;;;;;;;34.23;17.43;;;;;;;;;;10483383;28;20486;-80
2023/10/24 00:30:11;;;;;;;34.37;19.70;;;;;;;;;;10484035;28;20040;-80
2023/10/24 00:35:12;;;;;;;34.90;17.83;;;;;;;;;;10489266;28;20778;-82
2023/10/24 00:40:13;;;;;;;31.77;16.83;;;;;;;;;;10489630;28;20117;-79
2023/10/24 00:45:14;;;;;;;38.00;19.80;;;;;;;;;;10489878;28;20032;-80
2023/10/24 00:50:16;;;;;;;37.77;20.33;;;;;;;;;;10488686;28;20498;-81
2023/10/24 00:55:17;;;;;;;36.47;19.53;;;;;;;;;;10488936;28;20033;-79
2023/10/24 01:00:19;;;;;;;39.63;19.73;;;;;;;;;;10489645;28;20032;-82
2023/10/24 01:05:20;;;;;;;36.07;18.90;;;;;;;;;;10487976;28;20044;-80
2023/10/24 01:10:21;;;;;;;41.17;19.90;;;;;;;;;;10489280;28;20470;-80
2023/10/24 01:15:22;;;;;;;38.70;18.27;;;;;;;;;;10488793;28;20040;-79
2023/10/24 01:20:23;;;;;;;49.13;23.23;;;;;;;;;;10487307;28;20067;-81
2023/10/24 01:25:26;;;;;;;36.87;20.47;;;;;;;;;;10488505;28;20586;-80
2023/10/24 01:30:27;;;;;;;37.10;20.97;;;;;;;;;;10487619;28;20032;-79
2023/10/24 01:35:28;;;;;;;35.10;19.27;;;;;;;;;;10486399;28;20024;-80
2023/10/24 01:40:29;;;;;;;41.23;22.03;;;;;;;;;;10487281;28;20021;-79
2023/10/24 01:45:30;;;;;;;35.23;17.13;;;;;;;;;;10485839;28;20074;-80
2023/10/24 01:50:31;;;;;;;44.23;22.67;;;;;;;;;;10487880;28;20047;-82
2023/10/24 01:55:32;;;;;;;34.40;16.47;;;;;;;;;;10486519;28;20040;-80
2023/10/24 02:00:33;;;;;;;28.07;15.17;;;;;;;;;;10487848;28;20111;-83
2023/10/24 02:05:35;;;;;;;27.63;15.73;;;;;;;;;;10486272;28;20031;-80
2023/10/24 02:10:43;;;;;;;32.23;16.60;;;;;;;;;;10486509;28;20034;-80
2023/10/24 02:15:44;;;;;;;34.87;17.63;;;;;;;;;;10485182;28;20044;-81
2023/10/24 02:20:45;;;;;;;28.93;15.60;;;;;;;;;;10484869;28;20127;-80
2023/10/24 02:25:46;;;;;;;29.67;15.10;;;;;;;;;;10485397;28;20407;-80
2023/10/24 02:30:47;;;;;;;35.97;17.07;;;;;;;;;;10483452;28;20063;-80
2023/10/24 02:35:48;;;;;;;31.77;17.33;;;;;;;;;;10485561;28;20047;-79
2023/10/24 02:40:52;;;;;;;22.07;12.57;;;;;;;;;;10484635;28;20036;-80
2023/10/24 02:45:55;;;;;;;32.37;16.30;;;;;;;;;;10467158;28;20366;-80
2023/10/24 02:50:56;;;;;;;37.00;18.17;;;;;;;;;;10484981;28;20040;-80
2023/10/24 02:56:01;;;;;;;31.93;16.00;;;;;;;;;;10484247;28;20496;-80
2023/10/24 03:01:09;;;;;;;27.27;15.57;;;;;;;;;;10485536;28;20025;-81
2023/10/24 03:06:14;;;;;;;27.33;14.93;;;;;;;;;;10482855;28;20029;-80
2023/10/24 03:11:22;;;;;;;30.13;15.83;;;;;;;;;;10484365;28;20037;-82
2023/10/24 03:16:29;;;;;;;36.10;17.33;;;;;;;;;;10483821;28;20060;-77
2023/10/24 03:21:30;;;;;;;28.90;15.10;;;;;;;;;;10483279;28;20048;-78
2023/10/24 03:26:31;;;;;;;27.53;13.43;;;;;;;;;;10483395;28;20028;-79
2023/10/24 03:31:32;;;;;;;22.73;12.30;;;;;;;;;;10484059;28;20043;-82
2023/10/24 03:36:33;;;;;;;22.13;11.53;;;;;;;;;;10483821;28;20048;-81
2023/10/24 03:41:34;;;;;;;19.70;11.60;;;;;;;;;;10483128;28;20036;-81
2023/10/24 03:46:35;;;;;;;22.40;10.87;;;;;;;;;;10482347;28;20040;-83
2023/10/24 03:51:36;;;;;;;19.33;11.50;;;;;;;;;;10483877;28;20549;-82
2023/10/24 03:56:37;;;;;;;22.83;12.67;;;;;;;;;;10482552;28;20028;-81
2023/10/24 04:01:38;;;;;;;21.03;10.67;;;;;;;;;;10483627;28;20044;-80
2023/10/24 04:06:39;;;;;;;22.20;10.67;;;;;;;;;;10487142;28;20024;-80
2023/10/24 04:11:40;;;;;;;19.10;10.27;;;;;;;;;;10488353;28;20048;-81
2023/10/24 04:16:41;;;;;;;19.53;10.37;;;;;;;;;;10489195;28;20039;-80
2023/10/24 04:21:42;;;;;;;17.60;9.17;;;;;;;;;;10489214;28;20063;-79
2023/10/24 04:26:43;;;;;;;18.90;10.60;;;;;;;;;;10490712;28;20583;-80
2023/10/24 04:31:44;;;;;;;23.83;12.07;;;;;;;;;;10489660;28;20056;-80
2023/10/24 04:36:45;;;;;;;29.40;13.70;;;;;;;;;;10490056;28;20655;-80
2023/10/24 04:41:50;;;;;;;39.57;16.43;;;;;;;;;;10490236;28;20435;-80
2023/10/24 04:46:51;;;;;;;30.43;15.20;;;;;;;;;;10489948;28;20033;-79
2023/10/24 04:51:52;;;;;;;36.13;17.87;;;;;;;;;;10488987;28;20087;-79
2023/10/24 04:56:53;;;;;;;29.60;14.93;;;;;;;;;;10489926;28;20032;-80
2023/10/24 05:01:54;;;;;;;37.97;19.53;;;;;;;;;;10488655;28;20495;-83
2023/10/24 05:06:55;;;;;;;36.10;17.93;;;;;;;;;;10488266;28;20143;-84
2023/10/24 05:11:56;;;;;;;30.83;15.40;;;;;;;;;;10475793;28;20123;-81
2023/10/24 05:16:57;;;;;;;30.60;15.13;;;;;;;;;;10502665;28;20036;-80
2023/10/24 05:22:05;;;;;;;44.20;20.70;;;;;;;;;;10486447;28;20056;-83
2023/10/24 05:27:06;;;;;;;35.27;17.47;;;;;;;;;;10502266;28;20025;-82
2023/10/24 05:32:07;;;;;;;44.00;20.57;;;;;;;;;;10487069;28;20040;-84
2023/10/24 05:37:09;;;;;;;27.93;13.93;;;;;;;;;;10487100;28;20036;-80
2023/10/24 05:42:10;;;;;;;35.53;17.63;;;;;;;;;;10478056;28;20039;-80
2023/10/24 05:47:11;;;;;;;33.53;15.53;;;;;;;;;;10477436;28;20506;-80
2023/10/24 05:52:12;;;;;;;26.27;14.83;;;;;;;;;;10486036;28;20032;-79
2023/10/24 05:57:13;;;;;;;27.07;14.43;;;;;;;;;;10487389;28;20473;-83
2023/10/24 06:02:14;;;;;;;32.70;14.40;;;;;;;;;;10487024;28;20067;-84
2023/10/24 06:07:15;;;;;;;22.43;13.40;;;;;;;;;;10486890;28;20554;-79
2023/10/24 06:12:16;;;;;;;38.13;19.23;;;;;;;;;;10477574;28;20118;-79
2023/10/24 06:17:18;;;;;;;36.07;20.67;;;;;;;;;;10483544;28;20377;-79
2023/10/24 06:22:19;;;;;;;57.97;30.77;;;;;;;;;;10485502;28;20691;-78
2023/10/24 06:27:20;;;;;;;75.83;39.50;;;;;;;;;;10485922;28;20051;-83
2023/10/24 06:32:21;;;;;;;73.57;46.67;;;;;;;;;;10484203;28;20044;-80
2023/10/24 06:37:22;;;;;;;69.00;37.27;;;;;;;;;;10485574;28;20038;-79
2023/10/24 06:42:24;;;;;;;47.57;27.97;;;;;;;;;;10480572;28;20029;-79
2023/10/24 06:47:25;;;;;;;43.03;24.25;;;;;;;;;;10477948;28;20029;-79
2023/10/24 06:52:26;;;;;;;41.27;23.77;;;;;;;;;;10485588;28;20037;-80
2023/10/24 06:57:28;;;;;;;27.17;15.25;;;;;;;;;;10485396;28;20498;-79
2023/10/24 07:02:31;;;;;;;30.67;15.57;;;;;;;;;;10484276;28;20033;-82
2023/10/24 07:07:32;;;;;;;26.67;14.35;;;;;;;;;;10474936;28;20120;-81
2023/10/24 07:12:33;;;;;;;30.17;15.02;;;;;;;;;;10461863;28;20047;-79
2023/10/24 07:17:34;;;;;;;31.60;15.15;;;;;;;;;;10472137;28;20122;-82
2023/10/24 07:22:35;;;;;;;47.88;16.90;;;;;;;;;;10482650;28;20415;-80
2023/10/24 07:27:36;;;;;;;29.00;16.08;;;;;;;;;;10482323;28;20029;-78
2023/10/24 07:32:37;;;;;;;30.33;17.75;;;;;;;;;;10479004;28;20127;-79
2023/10/24 07:37:38;;;;;;;28.98;16.02;;;;;;;;;;10483859;28;20445;-79
2023/10/24 07:42:39;;;;;;;27.88;14.18;;;;;;;;;;10491352;28;20157;-80
2023/10/24 07:47:40;;;;;;;25.50;13.02;;;;;;;;;;10491722;28;20070;-79
2023/10/24 07:52:41;;;;;;;19.42;10.82;;;;;;;;;;10493484;28;20040;-79
2023/10/24 07:57:42;;;;;;;14.68;8.98;;;;;;;;;;10489074;28;20039;-78
2023/10/24 08:02:43;;;;;;;17.45;8.48;;;;;;;;;;10490470;28;20031;-80
2023/10/24 08:07:44;;;;;;;15.73;7.90;;;;;;;;;;10491742;28;20423;-84
2023/10/24 08:12:51;;;;;;;11.10;6.53;;;;;;;;;;10491012;28;20041;-80
2023/10/24 08:17:52;;;;;;;13.35;5.95;;;;;;;;;;10491003;28;20499;-80
2023/10/24 08:22:54;;;;;;;12.63;6.05;;;;;;;;;;10489686;28;20067;-80
2023/10/24 08:27:55;;;;;;;9.65;5.85;;;;;;;;;;10491220;28;20028;-79
2023/10/24 08:32:56;;;;;;;14.88;6.85;;;;;;;;;;10487620;28;20052;-79
2023/10/24 08:37:57;;;;;;;15.73;7.30;;;;;;;;;;10476612;28;20037;-79
2023/10/24 08:42:59;;;;;;;13.60;7.00;;;;;;;;;;10484748;28;20040;-79
2023/10/24 08:48:01;;;;;;;15.20;7.13;;;;;;;;;;10489366;28;20101;-82
2023/10/24 08:53:02;;;;;;;17.50;7.05;;;;;;;;;;10488352;28;20045;-79
2023/10/24 08:58:03;;;;;;;12.27;5.18;;;;;;;;;;10476729;28;20109;-80
2023/10/24 09:03:04;;;;;;;15.05;4.60;;;;;;;;;;10489632;28;20118;-80
2023/10/24 09:08:05;;;;;;;8.85;4.82;;;;;;;;;;10488314;28;20128;-80
2023/10/24 09:13:13;;;;;;;9.88;4.90;;;;;;;;;;10488940;28;20051;-82
2023/10/24 09:18:16;;;;;;;16.67;6.68;;;;;;;;;;10489348;28;20039;-83
2023/10/24 09:23:17;;;;;;;7.57;4.70;;;;;;;;;;10486817;28;20056;-82
2023/10/24 09:28:21;;;;;;;10.15;4.78;;;;;;;;;;10488432;28;20411;-80
2023/10/24 09:33:24;;;;;;;11.30;4.25;;;;;;;;;;10488075;28;20439;-79
2023/10/24 09:38:25;;;;;;;9.05;3.88;;;;;;;;;;10488134;28;20036;-79
2023/10/24 09:43:30;;;;;;;11.75;5.18;;;;;;;;;;10487776;28;20040;-81
2023/10/24 09:48:32;;;;;;;7.18;3.65;;;;;;;;;;10486893;28;20143;-82
2023/10/24 09:53:33;;;;;;;9.13;3.22;;;;;;;;;;10488198;28;20036;-81
2023/10/24 09:58:38;;;;;;;7.40;3.53;;;;;;;;;;10480768;28;20037;-83
2023/10/24 10:03:39;;;;;;;6.90;3.00;;;;;;;;;;10479186;28;20037;-81
2023/10/24 10:08:41;;;;;;;10.30;3.35;;;;;;;;;;10487233;28;20035;-84
2023/10/24 10:13:48;;;;;;;9.07;3.72;;;;;;;;;;10486903;28;20403;-82
2023/10/24 10:19:01;;;;;;;8.05;3.38;;;;;;;;;;10486025;28;20041;-81
2023/10/24 10:24:21;;;;;;;7.38;3.28;;;;;;;;;;10478589;28;20052;-80
2023/10/24 10:29:33;;;;;;;4.15;2.97;;;;;;;;;;10476678;28;20029;-81
2023/10/24 10:34:34;;;;;;;4.38;2.88;;;;;;;;;;10479370;28;20036;-80
2023/10/24 10:39:35;;;;;;;5.15;3.10;;;;;;;;;;10486142;28;20043;-82
2023/10/24 10:44:38;;;;;;;5.00;2.67;;;;;;;;;;10485359;28;20033;-83
2023/10/24 10:49:42;;;;;;;8.73;3.40;;;;;;;;;;10486618;28;20028;-80
2023/10/24 10:54:55;;;;;;;4.35;2.90;;;;;;;;;;10484679;28;20037;-80
2023/10/24 11:00:03;;;;;;;7.90;2.65;;;;;;;;;;10477215;28;20039;-83
2023/10/24 11:05:22;;;;;;;6.93;2.72;;;;;;;;;;10474212;28;20541;-81
2023/10/24 11:10:23;;;;;;;5.15;2.75;;;;;;;;;;10485697;28;20031;-81
2023/10/24 11:15:25;;;;;;;5.00;2.22;;;;;;;;;;10483042;28;20365;-82
2023/10/24 11:20:27;;;;;;;4.28;1.92;;;;;;;;;;10479867;28;20117;-81
2023/10/24 11:25:28;;;;;;;3.55;2.00;;;;;;;;;;10474197;28;20505;-83
2023/10/24 11:30:29;;;;;;;4.18;2.05;;;;;;;;;;10475316;28;20469;-80
2023/10/24 11:35:30;;;;;;;4.53;1.95;;;;;;;;;;10485441;28;20040;-80
2023/10/24 11:40:31;;;;;;;3.47;1.75;;;;;;;;;;10469919;28;20041;-81
2023/10/24 11:45:33;;;;;;;3.20;1.70;;;;;;;;;;10483677;28;20032;-79
2023/10/24 11:50:42;;;;;;;3.17;1.67;;;;;;;;;;10483948;28;20039;-81
2023/10/24 11:55:43;;;;;;;3.65;1.48;;;;;;;;;;10484368;28;20492;-83
2023/10/24 12:00:44;;;;;;;2.65;1.77;;;;;;;;;;10474267;28;20033;-82
2023/10/24 12:05:52;;;;;;;4.38;2.15;;;;;;;;;;10482925;28;20028;-80
2023/10/24 12:10:57;;;;;;;4.15;1.90;;;;;;;;;;10478208;28;20472;-79
2023/10/24 12:15:57;;;;;;;3.25;1.50;;;;;;;;;;10476669;28;20020;-80
2023/10/24 12:20:59;;;;;;;3.25;1.65;;;;;;;;;;10481305;28;20056;-80
2023/10/24 12:26:00;;;;;;;3.75;2.05;;;;;;;;;;10462970;28;20726;-83
2023/10/24 12:31:01;;;;;;;6.78;2.35;;;;;;;;;;10489494;28;20048;-83
2023/10/24 12:36:02;;;;;;;4.38;2.30;;;;;;;;;;10490867;28;20244;-80
2023/10/24 12:41:05;;;;;;;8.60;3.15;;;;;;;;;;10482498;28;20108;-79
2023/10/24 12:46:06;;;;;;;8.60;4.28;;;;;;;;;;10484855;28;20036;-79
2023/10/24 12:51:07;;;;;;;13.60;7.05;;;;;;;;;;10489461;28;20020;-80
2023/10/24 12:56:09;;;;;;;45.75;25.27;;;;;;;;;;10483823;28;20017;-80
2023/10/24 13:01:10;;;;;;;88.10;48.78;;;;;;;;;;10487981;28;20036;-80
2023/10/24 13:06:11;;;;;;;107.63;56.17;;;;;;;;;;10488646;28;20025;-80
2023/10/24 13:11:12;;;;;;;111.07;60.67;;;;;;;;;;10487509;28;20032;-80
2023/10/24 13:16:13;;;;;;;70.00;34.45;;;;;;;;;;10485953;28;20036;-81
2023/10/24 13:21:14;;;;;;;90.45;46.05;;;;;;;;;;10484969;28;20135;-80
2023/10/24 13:26:16;;;;;;;37.58;18.95;;;;;;;;;;10478940;28;20029;-78
2023/10/24 13:31:17;;;;;;;30.80;13.15;;;;;;;;;;10478367;28;20114;-79
2023/10/24 13:36:18;;;;;;;20.58;8.68;;;;;;;;;;10485980;28;20033;-78
2023/10/24 13:41:26;;;;;;;30.17;14.18;;;;;;;;;;10485985;28;20040;-79
2023/10/24 13:46:28;;;;;;;7.90;4.47;;;;;;;;;;10488210;28;20029;-79
2023/10/24 13:51:29;;;;;;;10.20;5.50;;;;;;;;;;10486786;28;20355;-79
2023/10/24 13:56:30;;;;;;;25.40;11.60;;;;;;;;;;10485573;28;20040;-79
2023/10/24 14:01:31;;;;;;;16.90;8.05;;;;;;;;;;10485517;28;20040;-81
2023/10/24 14:06:32;;;;;;;20.33;9.40;;;;;;;;;;10484667;28;20028;-79
2023/10/24 14:11:40;;;;;;;9.18;4.95;;;;;;;;;;10486184;28;20035;-79
2023/10/24 14:16:41;;;;;;;19.35;9.23;;;;;;;;;;10485947;28;20464;-80
2023/10/24 14:21:48;;;;;;;15.48;6.70;;;;;;;;;;10483770;28;20048;-79
2023/10/24 14:26:49;;;;;;;10.90;6.63;;;;;;;;;;10477862;28;20037;-78
2023/10/24 14:31:51;;;;;;;24.90;12.88;;;;;;;;;;10482347;28;20036;-79
2023/10/24 14:36:52;;;;;;;10.32;5.45;;;;;;;;;;10475629;28;20036;-79
2023/10/24 14:41:57;;;;;;;17.95;9.15;;;;;;;;;;10480704;28;20032;-80
2023/10/24 14:46:58;;;;;;;10.27;6.13;;;;;;;;;;10484961;28;20556;-79
2023/10/24 14:51:59;;;;;;;16.48;8.68;;;;;;;;;;10471273;28;20086;-79
2023/10/24 14:57:01;;;;;;;16.65;8.55;;;;;;;;;;10484430;28;20102;-80
2023/10/24 15:02:08;;;;;;;15.35;8.32;;;;;;;;;;10484227;28;20033;-80
2023/10/24 15:07:09;;;;;;;21.30;9.90;;;;;;;;;;10478788;28;20071;-79
2023/10/24 15:12:10;;;;;;;17.73;10.73;;;;;;;;;;10483689;28;20028;-80
2023/10/24 15:17:18;;;;;;;18.45;10.43;;;;;;;;;;10483711;28;20045;-77
2023/10/24 15:22:19;;;;;;;20.25;10.10;;;;;;;;;;10486162;28;20508;-79
2023/10/24 15:27:20;;;;;;;17.13;8.50;;;;;;;;;;10478250;28;20032;-78
2023/10/24 15:32:25;;;;;;;14.23;7.90;;;;;;;;;;10486204;28;20096;-79
2023/10/24 15:37:26;;;;;;;17.57;10.37;;;;;;;;;;10484661;28;20391;-79
2023/10/24 15:42:27;;;;;;;19.00;11.52;;;;;;;;;;10484132;28;20040;-80
2023/10/24 15:47:28;;;;;;;18.70;12.05;;;;;;;;;;10484050;28;20028;-78
2023/10/24 15:52:30;;;;;;;21.92;12.40;;;;;;;;;;10483816;28;20055;-80
2023/10/24 15:57:31;;;;;;;21.67;13.13;;;;;;;;;;10479170;28;20024;-79
2023/10/24 16:02:32;;;;;;;22.58;13.85;;;;;;;;;;10486173;28;20580;-80
2023/10/24 16:07:33;;;;;;;26.05;16.90;;;;;;;;;;10490228;28;20029;-81
2023/10/24 16:12:34;;;;;;;22.25;14.65;;;;;;;;;;10491593;28;20102;-79
2023/10/24 16:17:36;;;;;;;24.02;15.20;;;;;;;;;;10476605;28;20028;-82
2023/10/24 16:22:37;;;;;;;25.33;15.32;;;;;;;;;;10478918;28;20557;-79
2023/10/24 16:27:38;;;;;;;26.33;16.02;;;;;;;;;;10490007;28;20392;-81
2023/10/24 16:32:39;;;;;;;26.20;16.50;;;;;;;;;;10489050;28;20075;-82
2023/10/24 16:37:40;;;;;;;24.10;14.07;;;;;;;;;;10490495;28;20765;-79
2023/10/24 16:42:41;;;;;;;29.20;18.85;;;;;;;;;;10486631;28;20086;-77
2023/10/24 16:47:42;;;;;;;34.03;23.15;;;;;;;;;;10489284;28;20384;-80
2023/10/24 16:52:43;;;;;;;34.40;21.33;;;;;;;;;;10483559;28;20047;-78
2023/10/24 16:57:44;;;;;;;35.22;22.02;;;;;;;;;;10488888;28;20498;-81
2023/10/24 17:02:47;;;;;;;32.03;19.98;;;;;;;;;;10488684;28;20044;-81
2023/10/24 17:07:48;;;;;;;29.65;19.50;;;;;;;;;;10487621;28;20517;-78
2023/10/24 17:12:49;;;;;;;27.35;18.67;;;;;;;;;;10488102;28;20069;-79
2023/10/24 17:17:50;;;;;;;33.75;19.80;;;;;;;;;;10482938;28;20062;-81
2023/10/24 17:22:51;;;;;;;27.77;18.98;;;;;;;;;;10484150;28;20074;-80
2023/10/24 17:27:52;;;;;;;33.72;21.95;;;;;;;;;;10483679;28;20119;-78
2023/10/24 17:32:54;;;;;;;31.25;20.98;;;;;;;;;;10482769;28;20041;-79
2023/10/24 17:37:55;;;;;;;29.48;19.10;;;;;;;;;;10486056;28;20036;-78
2023/10/24 17:42:56;;;;;;;34.80;22.05;;;;;;;;;;10483729;28;20045;-80
2023/10/24 17:47:57;;;;;;;27.50;16.70;;;;;;;;;;10479520;28;20037;-79
2023/10/24 17:52:59;;;;;;;28.48;19.10;;;;;;;;;;10501459;28;20040;-83
2023/10/24 17:58:06;;;;;;;31.35;19.42;;;;;;;;;;10480690;28;20029;-79
2023/10/24 18:03:07;;;;;;;23.70;15.68;;;;;;;;;;10486124;28;20031;-81
2023/10/24 18:08:08;;;;;;;25.55;15.48;;;;;;;;;;10485783;28;20238;-80
2023/10/24 18:13:11;;;;;;;35.90;23.15;;;;;;;;;;10486151;28;20044;-79
2023/10/24 18:18:14;;;;;;;29.80;19.65;;;;;;;;;;10483640;28;20063;-79
2023/10/24 18:23:16;;;;;;;27.08;17.60;;;;;;;;;;10473292;28;20147;-80
2023/10/24 18:28:17;;;;;;;33.63;20.20;;;;;;;;;;10486401;28;20028;-80
2023/10/24 18:33:18;;;;;;;41.13;23.25;;;;;;;;;;10483401;28;20048;-80
2023/10/24 18:38:19;;;;;;;34.97;21.45;;;;;;;;;;10484070;28;20546;-80
2023/10/24 18:43:20;;;;;;;28.35;17.30;;;;;;;;;;10485011;28;20033;-79
2023/10/24 18:48:21;;;;;;;36.35;21.95;;;;;;;;;;10483055;28;20549;-79
2023/10/24 18:53:22;;;;;;;24.92;15.68;;;;;;;;;;10483949;28;20086;-79
2023/10/24 18:58:23;;;;;;;32.05;20.48;;;;;;;;;;10483482;28;20032;-82
2023/10/24 19:03:24;;;;;;;30.40;20.00;;;;;;;;;;10481487;28;20037;-82
2023/10/24 19:08:26;;;;;;;33.92;20.40;;;;;;;;;;10483749;28;20024;-80
2023/10/24 19:13:30;;;;;;;36.97;24.23;;;;;;;;;;10482636;28;20041;-79
2023/10/24 19:18:31;;;;;;;32.85;20.55;;;;;;;;;;10482609;28;20040;-80
2023/10/24 19:23:32;;;;;;;23.23;14.38;;;;;;;;;;10482487;28;20392;-83
2023/10/24 19:28:33;;;;;;;29.25;17.80;;;;;;;;;;10484225;28;20020;-79
2023/10/24 19:33:34;;;;;;;40.60;25.38;;;;;;;;;;10483968;28;20056;-80
2023/10/24 19:38:39;;;;;;;56.70;35.55;;;;;;;;;;10491450;28;20032;-79
2023/10/24 19:43:40;;;;;;;60.42;37.33;;;;;;;;;;10479605;28;20033;-79
2023/10/24 19:48:41;;;;;;;53.95;34.83;;;;;;;;;;10492066;28;20102;-80
2023/10/24 19:53:42;;;;;;;56.63;31.70;;;;;;;;;;10491986;28;20033;-82
2023/10/24 19:58:46;;;;;;;59.22;38.67;;;;;;;;;;10491621;28;20578;-79
2023/10/24 20:03:47;;;;;;;49.67;32.95;;;;;;;;;;10488510;28;20040;-80
2023/10/24 20:08:48;;;;;;;44.42;27.92;;;;;;;;;;10491585;28;20025;-80
2023/10/24 20:13:49;;;;;;;54.53;30.98;;;;;;;;;;10491332;28;20527;-80
2023/10/24 20:18:50;;;;;;;56.03;36.00;;;;;;;;;;10491015;28;20086;-81
2023/10/24 20:23:52;;;;;;;45.22;27.08;;;;;;;;;;10489998;28;20067;-79
2023/10/24 20:28:53;;;;;;;31.88;22.42;;;;;;;;;;10491141;28;20451;-81
2023/10/24 20:33:55;;;;;;;56.88;34.28;;;;;;;;;;10490933;28;20569;-82
2023/10/24 20:38:59;;;;;;;46.63;29.50;;;;;;;;;;10490832;28;20143;-80
2023/10/24 20:44:01;;;;;;;50.75;31.23;;;;;;;;;;10490295;28;20126;-80
2023/10/24 20:49:02;;;;;;;41.78;27.65;;;;;;;;;;10487978;28;20089;-82
2023/10/24 20:54:03;;;;;;;46.53;28.63;;;;;;;;;;10489659;28;20560;-80
2023/10/24 20:59:04;;;;;;;41.00;23.88;;;;;;;;;;10489965;28;20541;-80
2023/10/24 21:04:13;;;;;;;51.17;30.63;;;;;;;;;;10489593;28;20039;-80
2023/10/24 21:09:14;;;;;;;39.45;24.80;;;;;;;;;;10488948;28;20051;-80
2023/10/24 21:14:15;;;;;;;38.42;23.35;;;;;;;;;;10487032;28;20036;-81
2023/10/24 21:19:17;;;;;;;38.35;22.50;;;;;;;;;;10488254;28;20028;-81
2023/10/24 21:24:18;;;;;;;63.42;34.08;;;;;;;;;;10488188;28;20056;-82
2023/10/24 21:29:19;;;;;;;65.43;35.10;;;;;;;;;;10489434;28;20582;-81
2023/10/24 21:34:20;;;;;;;66.30;39.05;;;;;;;;;;10487685;28;20053;-82
2023/10/24 21:39:22;;;;;;;64.10;39.38;;;;;;;;;;10488511;28;20036;-81
2023/10/24 21:44:23;;;;;;;52.30;28.80;;;;;;;;;;10488465;28;20040;-82
2023/10/24 21:49:24;;;;;;;50.88;25.88;;;;;;;;;;10487665;28;20028;-82
2023/10/24 21:54:25;;;;;;;52.45;28.33;;;;;;;;;;10487391;28;20468;-80
2023/10/24 21:59:26;;;;;;;42.85;22.27;;;;;;;;;;10487651;28;20033;-81
2023/10/24 22:04:27;;;;;;;42.15;23.05;;;;;;;;;;10487386;28;20093;-80
2023/10/24 22:09:28;;;;;;;34.47;19.02;;;;;;;;;;10484953;28;20039;-81
2023/10/24 22:14:29;;;;;;;48.75;23.42;;;;;;;;;;10486491;28;20044;-82
2023/10/24 22:19:30;;;;;;;38.35;19.73;;;;;;;;;;10487234;28;20047;-85
2023/10/24 22:24:32;;;;;;;36.13;16.13;;;;;;;;;;10459547;28;20053;-83
2023/10/24 22:29:33;;;;;;;35.67;17.60;;;;;;;;;;10444092;28;20389;-81
2023/10/24 22:34:34;;;;;;;32.28;17.17;;;;;;;;;;10444158;28;20093;-82
2023/10/24 22:39:35;;;;;;;35.28;16.02;;;;;;;;;;10445217;28;20029;-83
2023/10/24 22:44:36;;;;;;;30.98;14.55;;;;;;;;;;10444873;28;20036;-82
2023/10/24 22:49:37;;;;;;;41.30;17.38;;;;;;;;;;10443528;28;20029;-82
2023/10/24 22:54:38;;;;;;;38.47;16.15;;;;;;;;;;10444025;28;20063;-81
2023/10/24 22:59:39;;;;;;;45.55;17.60;;;;;;;;;;10443574;28;20150;-82
2023/10/24 23:04:40;;;;;;;41.10;17.25;;;;;;;;;;10430446;28;20044;-84
2023/10/24 23:09:41;;;;;;;38.85;16.77;;;;;;;;;;10441585;28;20125;-81
2023/10/24 23:14:42;;;;;;;34.53;15.45;;;;;;;;;;10442238;28;20032;-85
2023/10/24 23:19:43;;;;;;;30.80;13.40;;;;;;;;;;10440402;28;20029;-82
2023/10/24 23:30:24;;;;;;;24.15;12.57;;;;;;;;;;10481898;28;20028;-85
2023/10/24 23:35:25;;;;;;;51.33;18.75;;;;;;;;;;10483664;28;20450;-83
2023/10/24 23:40:27;;;;;;;37.40;15.27;;;;;;;;;;10485278;28;20031;-82
2023/10/24 23:45:28;;;;;;;33.58;15.20;;;;;;;;;;10482529;28;20024;-82
2023/10/24 23:50:29;;;;;;;37.45;16.05;;;;;;;;;;10483623;28;20036;-84
2023/10/24 23:55:35;;;;;;;31.92;14.65;;;;;;;;;;10483886;28;20093;-82
